createdAt,value
2019-06-07T00:04:21.156Z,10.67
2019-06-07T00:08:51.097Z,10.67
2019-06-07T00:13:22.590Z,11.30
2019-06-07T00:17:54.951Z,12.23
2019-06-07T00:22:33.196Z,11.60
2019-06-07T00:27:00.269Z,10.47
2019-06-07T00:31:32.619Z,9.30
2019-06-07T00:36:23.495Z,9.40
2019-06-07T00:40:55.903Z,8.53
2019-06-07T00:45:27.446Z,8.70
2019-06-07T00:49:59.844Z,9.07
2019-06-07T00:54:30.807Z,8.83
2019-06-07T00:59:11.446Z,9.03
2019-06-07T01:03:39.035Z,9.10
2019-06-07T01:08:14.839Z,8.70
2019-06-07T01:12:46.166Z,9.07
2019-06-07T01:17:43.771Z,9.80
2019-06-07T01:22:08.310Z,9.73
2019-06-07T01:26:42.018Z,10.47
2019-06-07T01:31:12.323Z,10.00
2019-06-07T01:35:42.578Z,10.47
2019-06-07T01:40:12.865Z,10.83
2019-06-07T01:45:03.955Z,11.17
2019-06-07T01:49:55.490Z,10.73
2019-06-07T01:54:53.151Z,11.33
2019-06-07T01:58:58.993Z,11.40
2019-06-07T02:03:33.395Z,11.20
2019-06-07T02:12:43.261Z,11.77
2019-06-07T02:17:11.364Z,12.23
2019-06-07T02:21:43.695Z,11.00
2019-06-07T02:26:14.065Z,11.47
2019-06-07T02:30:59.472Z,11.27
2019-06-07T02:35:26.056Z,11.10
2019-06-07T02:39:55.879Z,10.57
2019-06-07T02:44:31.892Z,10.70
2019-06-07T02:49:02.678Z,10.67
2019-06-07T02:53:40.124Z,10.37
2019-06-07T02:58:07.495Z,9.23
2019-06-07T03:02:41.366Z,9.97
2019-06-07T03:07:11.970Z,9.17
2019-06-07T03:11:44.820Z,10.10
2019-06-07T03:16:16.269Z,9.20
2019-06-07T03:21:04.488Z,9.37
2019-06-07T03:25:23.888Z,9.23
2019-06-07T03:29:55.008Z,8.90
2019-06-07T03:34:29.708Z,9.20
2019-06-07T03:39:02.754Z,9.40
2019-06-07T03:43:36.688Z,8.90
2019-06-07T03:48:08.194Z,9.20
2019-06-07T03:52:41.592Z,9.97
2019-06-07T03:57:12.248Z,9.33
2019-06-07T04:01:43.043Z,10.50
2019-06-07T04:06:15.636Z,9.97
2019-06-07T04:10:59.216Z,9.80
2019-06-07T04:19:52.007Z,10.30
2019-06-07T04:24:23.749Z,10.17
2019-06-07T04:33:51.181Z,10.50
2019-06-07T04:38:23.450Z,9.50
2019-06-07T04:43:14.936Z,9.93
2019-06-07T04:47:44.879Z,10.07
2019-06-07T04:52:18.907Z,9.57
2019-06-07T04:56:50.058Z,10.83
2019-06-07T05:01:27.705Z,10.13
2019-06-07T05:05:52.272Z,10.67
2019-06-07T05:10:24.908Z,9.50
2019-06-07T05:14:59.161Z,9.47
2019-06-07T05:19:35.213Z,9.73
2019-06-07T05:24:11.045Z,9.90
2019-06-07T05:33:11.879Z,10.20
2019-06-07T05:37:45.896Z,9.97
2019-06-07T05:42:15.515Z,9.73
2019-06-07T05:46:47.592Z,9.70
2019-06-07T05:51:18.684Z,9.90
2019-06-07T05:55:50.445Z,9.60
2019-06-07T06:00:22.860Z,10.07
2019-06-07T06:04:54.437Z,10.07
2019-06-07T06:09:27.392Z,9.37
2019-06-07T06:14:07.931Z,10.10
2019-06-07T06:18:42.927Z,10.00
2019-06-07T06:23:14.863Z,9.70
2019-06-07T06:28:09.997Z,10.03
2019-06-07T06:36:56.747Z,9.53
2019-06-07T06:41:28.527Z,9.10
2019-06-07T06:46:00.212Z,9.77
2019-06-07T06:50:33.064Z,10.20
2019-06-07T06:55:04.452Z,9.50
2019-06-07T06:59:39.546Z,8.67
2019-06-07T07:04:13.650Z,9.47
2019-06-07T07:08:47.888Z,8.43
2019-06-07T07:13:17.577Z,9.43
2019-06-07T07:18:04.358Z,9.20
2019-06-07T07:22:21.405Z,7.83
2019-06-07T07:26:57.895Z,8.63
2019-06-07T07:31:28.133Z,8.27
2019-06-07T07:36:18.970Z,8.33
2019-06-07T07:40:57.218Z,7.57
2019-06-07T07:45:06.151Z,8.43
2019-06-07T07:49:36.480Z,8.47
2019-06-07T07:54:13.255Z,8.13
2019-06-07T07:58:48.702Z,7.63
2019-06-07T08:03:20.736Z,7.77
2019-06-07T08:08:00.300Z,8.00
2019-06-07T08:12:30.404Z,6.77
2019-06-07T08:17:01.393Z,7.13
2019-06-07T08:21:33.161Z,6.00
2019-06-07T08:26:06.607Z,6.40
2019-06-07T08:31:02.392Z,5.77
2019-06-07T08:35:56.901Z,6.33
2019-06-07T08:39:42.558Z,5.97
2019-06-07T08:44:23.418Z,6.10
2019-06-07T08:48:50.019Z,5.80
2019-06-07T08:53:23.249Z,6.47
2019-06-07T08:58:03.375Z,6.30
2019-06-07T09:02:29.739Z,6.47
2019-06-07T09:07:08.949Z,6.23
2019-06-07T09:11:56.489Z,5.70
2019-06-07T09:16:27.932Z,5.67
2019-06-07T09:21:03.967Z,5.93
2019-06-07T09:25:52.166Z,7.10
2019-06-07T09:30:12.633Z,6.13
2019-06-07T09:34:41.020Z,5.90
2019-06-07T09:39:13.575Z,6.17
2019-06-07T09:44:01.348Z,5.97
2019-06-07T09:49:01.308Z,6.30
2019-06-07T09:52:58.669Z,6.33
2019-06-07T09:57:26.682Z,5.83
2019-06-07T10:02:08.164Z,5.70
2019-06-07T10:06:41.989Z,4.40
2019-06-07T10:11:14.258Z,5.43
2019-06-07T10:15:48.464Z,4.57
2019-06-07T10:20:21.921Z,5.00
2019-06-07T10:29:20.990Z,4.30
2019-06-07T10:33:53.467Z,4.83
2019-06-07T10:38:25.239Z,4.57
2019-06-07T10:42:56.672Z,4.90
2019-06-07T10:47:27.631Z,4.27
2019-06-07T10:52:03.450Z,4.40
2019-06-07T10:56:35.342Z,4.03
2019-06-07T11:01:07.756Z,4.20
2019-06-07T11:05:38.536Z,3.70
2019-06-07T11:10:15.666Z,3.93
2019-06-07T11:14:43.675Z,4.60
2019-06-07T11:19:19.647Z,4.40
2019-06-07T11:23:55.236Z,4.53
2019-06-07T11:28:27.906Z,4.23
2019-06-07T11:37:38.370Z,3.77
2019-06-07T11:42:09.866Z,3.97
2019-06-07T11:46:41.135Z,4.00
2019-06-07T11:51:14.897Z,4.10
2019-06-07T11:55:45.485Z,3.83
2019-06-07T12:04:48.178Z,3.90
2019-06-07T12:09:20.524Z,4.03
2019-06-07T12:13:52.555Z,4.50
2019-06-07T12:18:21.613Z,4.47
2019-06-07T12:22:53.381Z,5.00
2019-06-07T12:27:24.569Z,4.77
2019-06-07T12:32:01.638Z,4.60
2019-06-07T12:36:33.247Z,4.50
2019-06-07T12:41:04.814Z,4.80
2019-06-07T12:45:45.296Z,4.70
2019-06-07T12:50:13.512Z,4.30
2019-06-07T12:54:43.097Z,4.27
2019-06-07T12:59:34.828Z,4.60
2019-06-07T13:04:05.287Z,4.67
2019-06-07T13:08:37.595Z,4.20
2019-06-07T13:13:08.972Z,5.00
2019-06-07T13:17:40.711Z,5.87
2019-06-07T13:22:16.210Z,4.90
2019-06-07T13:26:47.905Z,4.70
2019-06-07T13:31:21.147Z,4.20
2019-06-07T13:35:53.108Z,4.30
2019-06-07T13:40:25.831Z,4.27
2019-06-07T13:44:57.228Z,4.43
2019-06-07T13:49:28.089Z,3.73
2019-06-07T13:54:00.813Z,3.63
2019-06-07T14:03:02.124Z,3.87
2019-06-07T14:07:33.004Z,3.97
2019-06-07T14:12:05.152Z,3.97
2019-06-07T14:16:37.885Z,5.00
2019-06-07T14:21:09.010Z,5.10
2019-06-07T14:25:40.717Z,5.43
2019-06-07T14:30:13.379Z,4.87
2019-06-07T14:34:44.015Z,4.83
2019-06-07T14:39:15.275Z,4.30
2019-06-07T14:43:48.090Z,4.40
2019-06-07T14:48:18.407Z,5.10
2019-06-07T14:52:50.723Z,4.70
2019-06-07T14:57:21.911Z,4.90
2019-06-07T15:01:55.266Z,4.43
2019-06-07T15:06:26.711Z,4.17
2019-06-07T15:11:03.039Z,4.27
2019-06-07T15:15:53.501Z,4.47
2019-06-07T15:20:25.670Z,4.50
2019-06-07T15:24:56.253Z,5.40
2019-06-07T15:29:29.849Z,4.43
2019-06-07T15:34:01.761Z,5.00
2019-06-07T15:38:35.267Z,6.97
2019-06-07T15:43:05.868Z,7.20
2019-06-07T15:47:38.930Z,7.47
2019-06-07T15:52:13.594Z,7.63
2019-06-07T15:56:44.305Z,7.87
2019-06-07T16:01:18.529Z,7.03
2019-06-07T16:05:48.915Z,7.77
2019-06-07T16:10:22.244Z,8.30
2019-06-07T16:14:53.497Z,8.07
2019-06-07T16:19:24.136Z,8.63
2019-06-07T16:23:55.167Z,8.77
2019-06-07T16:28:25.624Z,9.33
2019-06-07T16:32:56.330Z,8.03
2019-06-07T16:37:29.227Z,8.33
2019-06-07T16:42:00.875Z,7.67
2019-06-07T16:51:02.582Z,7.30
2019-06-07T16:55:36.476Z,7.60
2019-06-07T17:00:09.294Z,7.00
2019-06-07T17:09:24.149Z,7.00
2019-06-07T17:14:34.804Z,7.10
2019-06-07T17:19:10.114Z,6.77
2019-06-07T17:23:41.193Z,7.33
2019-06-07T17:28:12.754Z,7.53
2019-06-07T17:32:56.316Z,6.60
2019-06-07T17:37:18.165Z,7.00
2019-06-07T17:42:08.378Z,7.93
2019-06-07T17:46:38.295Z,7.47
2019-06-07T17:51:28.961Z,7.07
2019-06-07T17:56:00.040Z,7.07
2019-06-07T18:00:33.856Z,7.17
2019-06-07T18:05:09.836Z,7.17
2019-06-07T18:09:40.686Z,7.30
2019-06-07T18:14:13.446Z,7.43
2019-06-07T18:18:44.538Z,7.63
2019-06-07T18:23:20.565Z,7.60
2019-06-07T18:27:54.672Z,7.73
2019-06-07T18:32:25.749Z,7.43
2019-06-07T18:36:57.120Z,7.23
2019-06-07T18:41:28.812Z,7.30
2019-06-07T18:46:00.848Z,7.50
2019-06-07T18:50:32.430Z,7.57
2019-06-07T18:55:04.028Z,7.43
2019-06-07T18:59:36.451Z,8.47
2019-06-07T19:04:08.256Z,9.23
2019-06-07T19:08:40.928Z,10.20
2019-06-07T19:13:13.696Z,10.40
2019-06-07T19:17:44.719Z,12.07
2019-06-07T19:22:18.342Z,11.27
2019-06-07T19:27:10.458Z,10.87
2019-06-07T19:31:43.576Z,11.03
2019-06-07T19:36:16.886Z,11.00
2019-06-07T19:40:49.969Z,12.00
2019-06-07T19:45:30.205Z,12.03
2019-06-07T19:49:59.249Z,13.03
2019-06-07T19:54:32.928Z,12.77
2019-06-07T20:03:30.702Z,12.93
2019-06-07T20:08:04.899Z,13.83
2019-06-07T20:12:37.896Z,14.80
2019-06-07T20:17:10.086Z,13.77
2019-06-07T20:21:43.545Z,15.20
2019-06-07T20:26:15.817Z,16.27
2019-06-07T20:30:47.291Z,15.40
2019-06-07T20:35:19.974Z,15.17
2019-06-07T20:40:00.851Z,16.10
2019-06-07T20:44:29.616Z,16.57
2019-06-07T20:49:02.250Z,15.57
2019-06-07T20:53:33.783Z,17.30
2019-06-07T20:58:07.122Z,17.67
2019-06-07T21:02:38.452Z,16.63
2019-06-07T21:07:10.281Z,17.10
2019-06-07T21:11:46.348Z,15.20
2019-06-07T21:16:18.673Z,17.10
2019-06-07T21:20:49.650Z,16.37
2019-06-07T21:25:22.752Z,16.67
2019-06-07T21:29:55.305Z,16.10
2019-06-07T21:34:30.004Z,15.90
2019-06-07T21:39:02.341Z,17.87
2019-06-07T21:43:34.662Z,16.27
2019-06-07T21:48:07.025Z,16.50
2019-06-07T21:53:00.126Z,18.10
2019-06-07T21:57:30.174Z,18.63
2019-06-07T22:02:01.247Z,20.03
2019-06-07T22:06:34.313Z,21.60
2019-06-07T22:11:06.352Z,20.63
2019-06-07T22:15:38.815Z,19.70
2019-06-07T22:20:10.820Z,20.80
2019-06-07T22:24:42.944Z,20.80
2019-06-07T22:29:14.423Z,19.97
2019-06-07T22:33:46.715Z,21.77
2019-06-07T22:38:18.501Z,22.27
2019-06-07T22:42:51.881Z,23.13
2019-06-07T22:47:23.204Z,23.43
2019-06-07T22:52:07.917Z,24.97
2019-06-07T22:56:35.876Z,26.90
2019-06-07T23:01:08.600Z,26.43
2019-06-07T23:05:59.573Z,25.03
2019-06-07T23:10:33.209Z,25.87
2019-06-07T23:15:06.164Z,23.63
2019-06-07T23:19:38.381Z,24.47
2019-06-07T23:24:10.295Z,24.27
2019-06-07T23:28:42.303Z,24.83
2019-06-07T23:33:14.715Z,24.30
2019-06-07T23:37:48.127Z,25.23
2019-06-07T23:42:41.030Z,24.33
2019-06-07T23:47:17.207Z,25.17
2019-06-07T23:51:49.190Z,25.00
2019-06-07T23:56:20.569Z,24.07
